EGCC Airport Information

Runway Information
Runway 05L Length 10000 ft width 150 ft
Elevation 212 ft Threshold 1401 ft Heading 51
Runway 23R Length 10000 ft Width 150 ft
Elevation 249 ft Threshold 600 ft Heading 231
Runway 05R Length 9997 ft width 150 ft
Elevation 186 ft Threshold 604 ft Heading 51
Runway 23L Length 9997 ft Width 150 ft
Elevation 227 ft Threshold 604 ft Heading 231
Airport Frequencies
Type APP Name APP Frequency 135 MHZ
Type ATIS Name ATIS Frequency 128.175 MHZ
Type CLD Name CLNC DEL Frequency 121.7 MHZ
Type GND Name GND Frequency 121.85 MHZ
Type TWR Name TWR Frequency 118.625 MHZ
Airport Navaids
Type NDB Name Manchester Frequency 428 KHZ
Type VOR-DME Name Manchester Frequency 113550 KHZ
Airport Weather Information & NOTAM
ADDS - METARS form results

(0917 UTC 26 February 2021)
Data provider http://aviationweather.gov/metar/data/
 
METAR text: EGCC 260850Z AUTO VRB03KT 9999 NCD 04/02 Q1036
Conditions at: EGCC (MANCHESTER INTL , GB) observed 0850 UTC 26 February 2021
Temperature: 4.0°C (39°F)
Dewpoint: 2.0°C (36°F) [RH = 87%]
Pressure (altimeter): 30.59 inches Hg (1036.0 mb)
Winds: variable direction winds at 3 MPH (3 knots; 1.5 m/s)
Visibility: 6 or more miles (10+ km)
Ceiling: at least 12,000 feet AGL
Clouds: sky clear below 12,000 feet AGL
Weather: no significant weather observed at this time

METAR text: EGCC 260820Z AUTO VRB02KT 9999 NCD 02/02 Q1036
Conditions at: EGCC (MANCHESTER INTL , GB) observed 0820 UTC 26 February 2021
Temperature: 2.0°C (36°F)
Dewpoint: 2.0°C (36°F) [RH = 100%]
Pressure (altimeter): 30.59 inches Hg (1036.0 mb)
Winds: variable direction winds at 2 MPH (2 knots; 1.0 m/s)
Visibility: 6 or more miles (10+ km)
Ceiling: at least 12,000 feet AGL
Clouds: sky clear below 12,000 feet AGL
Weather: no significant weather observed at this time

Forecast for: EGCC (MANCHESTER INTL , GB)
Text: TAF EGCC 260504Z 2606/2712 17005KT 9999 FEW030
Forecast period: 0600 UTC 26 February 2021 to 1200 UTC 27 February 2021
Forecast type: FROM: standard forecast or significant change
Winds: from the S (170 degrees) at 6 MPH (5 knots; 2.6 m/s)
Visibility: 6 or more miles (10+ km)
Ceiling: at least 12,000 feet AGL
Clouds: few clouds at 3000 feet AGL
Weather: no significant weather forecast for this period
Text: PROB30 2606/2610 5000 BR
Forecast period: 0600 to 1000 UTC 26 February 2021
Forecast type: PROBABLE: 30 percent likelihood of the following during this time
Visibility: 3 miles (5 km)
Ceiling: unknown
Clouds: missing
Weather: BR  (mist)
Text: PROB30 2622/2710 5000 BR
Forecast period: 2200 UTC 26 February 2021 to 1000 UTC 27 February 2021
Forecast type: PROBABLE: 30 percent likelihood of the following during this time
Visibility: 3 miles (5 km)
Ceiling: unknown
Clouds: missing
Weather: BR  (mist)